Foster, Craig
United StatesManBorn 19622006 – 2024Runner id 104233
Events
51
2006 – 2024
Best pace
9.453
km/h · 2009
Best finish
28th
of 74 · 2013
Distance raced
3,433
km · splits not double-counted
Pace over time
km/h · higher is faster
Pace over time: 51 races from 2006 to 2024, ranging from 4.14 to 10.26 kilometres per hour, where higher is faster. A second, age-graded series is drawn above it; the gap between the two is the age credit.
- Actual pace
- Age-graded pace
Results
| Date | Event | Distance | Result | Pace km/h | Placing |
|---|---|---|---|---|---|
| 2006-09-16 | 50km | 8:04:13 h | 6.196 | 56/70 | |
| 2008-04-13 | 50mi | 9:31:58 h | 8.441 | 39/50 | |
| 2009-05-16 | Watershed Preserve 12 Hr Trail RaceUnited States | 12h | 51.901 km | 4.325 | 59/66 |
| 2009-06-06 | 50mi | 10:23:20 h | 7.746 | 2/5 | |
| 2009-09-20 | Big DabrowskiUnited States | 50km | 8:29:00 h | 5.894 | 14/21 |
| 2009-10-31 | 12h | 65.226 km | 5.436 | 13/33 | |
| 2009-12-19 | Pigtails Run 50KUnited States | 50km | 5:17:22 h | 9.453 | 20/32 |
| 2010-03-27 | 100mi | 23:45:53 h | 6.772 | 80/133 | |
| 2010-05-15 | 12h | 81.336 km | 6.778 | 42/80 | |
| 2010-06-05 | 50mi | 11:11:15 h | 7.193 | 34/40 | |
| 2010-07-31 | 50mi | 12:27:38 h | 6.458 | 171/194 | |
| 2010-11-06 | Ron Herzog 50KUnited States | 50km | 6:36:56 h | 7.558 | 24/35 |
| 2011-01-15 | 34mi | 8:09:00 h | 6.714 | 38/43 | |
| 2011-02-05 | 50km | 8:00:07 h | 6.248 | 88/129 | |
| 2011-03-11 | 50km | 7:48:21 h | 6.405 | 96/125 | |
| 2011-05-22 | 50mi | 9:53:07 h | 8.140 | 30/39 | |
| 2011-07-02 | Lord Hill Summer Trail RunUnited States | 50km | 7:31:05 h | 6.651 | 24/30 |
| 2011-07-30 | 50mi | 11:47:22 h | 6.825 | 184/244 | |
| 2011-11-19 | Grand Ridge 50 Km Trail RunUnited States | 50km | 6:45:27 h | 7.399 | 11/19 |
| 2012-01-28 | Bridle Trails Winter Running FestivalUnited States | 50km | 5:57:35 h | 8.390 | 29/46 |
| 2012-02-04 | 50km | 7:55:40 h | 6.307 | 137/171 | |
| 2012-03-17 | 50km | 6:26:08 h | 7.769 | 339/550 | |
| 2012-03-24 | Dizzy Daze 50 kmUnited States | 50km | 5:24:54 h | 9.234 | 15/20 |
| 2012-04-22 | 50mi | 9:26:49 h | 8.518 | 19/39 | |
| 2012-05-24 | Pigtails Challenge 100 MileUnited States | 100mi | 26:17:00 h | 6.123 | 20/36 |
| 2012-07-28 | 50mi | 12:25:12 h | 6.479 | 246/275 | |
| 2012-10-27 | 100mi | 27:50:17 h | 5.781 | 108/160 | |
| 2012-12-08 | 50km | 6:42:20 h | 7.457 | 60/86 | |
| 2013-02-02 | 50km | 8:15:52 h | 6.050 | 186/215 | |
| 2013-02-24 | 50km | 6:41:33 h | 7.471 | 36/62 | |
| 2013-03-16 | 50km | 5:52:05 h | 8.521 | 166/346 | |
| 2013-03-23 | 12h | 66.948 km | 5.579 | 28/74 | |
| 2013-06-14 | 100mi | 38:50:47 h | 4.143 | 14/16 | |
| 2014-10-18 | 50km | 6:52:34 h | 7.272 | 113/151 | |
| 2015-01-17 | 50km | 7:30:56 h | 6.653 | 61/78 | |
| 2015-02-07 | 50km | 8:11:04 h | 6.109 | 195/241 | |
| 2015-02-21 | 50mi | 12:02:34 h | 6.682 | 54/105 | |
| 2015-03-14 | 50km | 8:56:21 h | 5.593 | 51/60 | |
| 2015-06-20 | Rattlesnake Ridge 50k RunUnited States | 50km | 7:01:18 h | 7.121 | 24/38 |
| 2016-01-09 | 50km | 5:50:00 h | 8.571 | 41/73 | |
| 2016-10-01 | 50km | 7:03:00 h | 7.092 | 76/120 | |
| 2017-01-14 | 50km | 5:49:23 h | 8.587 | 30/59 | |
| 2017-02-26 | 50km | 7:43:20 h | 6.475 | 36/43 | |
| 2017-04-15 | 50mi | 13:15:03 h | 6.073 | 261/300 | |
| 2017-09-23 | 50km | 7:17:24 h | 6.859 | 121/204 | |
| 2019-06-29 | 50km | 9:03:52 h | 5.516 | 114/145 | |
| 2019-09-21 | 50km | 8:57:01 h | 5.586 | 188/217 | |
| 2021-01-16 | 52mi | 16:50:23 h | 4.970 | 50/53 | |
| 2021-07-10 | 50km | 8:42:28 h | 5.742 | 59/67 | |
| 2024-01-21 | 50km | 8:07:04 h | 6.159 | 50/59 |
Showing 1–50 of 51